createdAt,value
2023-03-13T00:02:38.619Z,9.04
2023-03-13T00:05:40.010Z,9.02
2023-03-13T00:08:41.870Z,8.96
2023-03-13T00:11:44.136Z,9.01
2023-03-13T00:14:45.533Z,9.10
2023-03-13T00:17:47.008Z,9.15
2023-03-13T00:20:50.504Z,9.15
2023-03-13T00:23:52.184Z,9.21
2023-03-13T00:26:55.177Z,9.20
2023-03-13T00:29:56.567Z,9.21
2023-03-13T00:32:58.157Z,9.26
2023-03-13T00:36:01.103Z,9.28
2023-03-13T00:39:04.495Z,9.29
2023-03-13T00:42:06.073Z,9.33
2023-03-13T00:45:07.852Z,9.38
2023-03-13T00:48:09.228Z,9.49
2023-03-13T00:51:11.141Z,9.54
2023-03-13T00:54:12.584Z,9.58
2023-03-13T00:57:14.066Z,9.59
2023-03-13T01:00:16.451Z,9.59
2023-03-13T01:03:18.579Z,9.59
2023-03-13T01:06:23.157Z,9.64
2023-03-13T01:09:24.934Z,9.65
2023-03-13T01:12:26.454Z,9.65
2023-03-13T01:15:27.861Z,9.68
2023-03-13T01:18:29.398Z,9.71
2023-03-13T01:21:31.545Z,9.72
2023-03-13T01:24:33.219Z,9.75
2023-03-13T01:27:34.763Z,9.76
2023-03-13T01:30:36.291Z,9.81
2023-03-13T01:33:37.896Z,9.78
2023-03-13T01:36:39.349Z,9.82
2023-03-13T01:39:40.792Z,9.93
2023-03-13T01:42:59.824Z,10.02
2023-03-13T01:46:01.614Z,10.16
2023-03-13T01:49:18.059Z,10.22
2023-03-13T01:52:31.027Z,10.23
2023-03-13T01:55:57.224Z,10.28
2023-03-13T01:58:59.254Z,10.28
2023-03-13T02:02:04.441Z,10.28
2023-03-13T02:05:07.085Z,10.38
2023-03-13T02:08:32.635Z,10.47
2023-03-13T02:11:55.287Z,10.50
2023-03-13T02:14:59.413Z,10.71
2023-03-13T02:18:00.982Z,10.69
2023-03-13T02:21:11.372Z,10.74
2023-03-13T02:24:28.767Z,10.83
2023-03-13T02:27:30.543Z,10.95
2023-03-13T02:30:33.432Z,10.97
2023-03-13T02:33:38.686Z,10.97
2023-03-13T02:36:41.077Z,11.05
2023-03-13T02:39:47.271Z,10.97
2023-03-13T02:42:52.202Z,10.94
2023-03-13T02:46:12.502Z,11.02
2023-03-13T02:49:20.386Z,11.18
2023-03-13T02:52:26.299Z,11.18
2023-03-13T02:55:32.566Z,11.30
2023-03-13T02:58:51.348Z,11.36
2023-03-13T03:01:56.912Z,11.52
2023-03-13T03:04:58.363Z,11.51
2023-03-13T03:07:59.846Z,11.53
2023-03-13T03:11:05.194Z,11.54
2023-03-13T03:14:07.618Z,11.65
2023-03-13T03:17:13.206Z,11.69
2023-03-13T03:20:15.010Z,11.82
2023-03-13T03:23:18.004Z,11.80
2023-03-13T03:26:19.642Z,11.79
2023-03-13T03:29:21.352Z,11.94
2023-03-13T03:32:25.886Z,11.92
2023-03-13T03:35:29.060Z,11.84
2023-03-13T03:38:30.792Z,11.84
2023-03-13T03:41:32.395Z,11.93
2023-03-13T03:44:34.500Z,11.95
2023-03-13T03:47:36.201Z,11.99
2023-03-13T03:50:37.681Z,12.09
2023-03-13T03:53:39.279Z,12.02
2023-03-13T03:56:41.023Z,11.99
2023-03-13T03:59:42.587Z,11.93
2023-03-13T04:02:45.660Z,12.11
2023-03-13T04:05:48.065Z,11.99
2023-03-13T04:08:50.480Z,12.06
2023-03-13T04:11:55.343Z,12.07
2023-03-13T04:14:57.329Z,12.04
2023-03-13T04:17:59.175Z,12.07
2023-03-13T04:21:03.164Z,12.02
2023-03-13T04:24:08.360Z,11.90
2023-03-13T04:27:11.823Z,11.97
2023-03-13T04:30:13.532Z,11.96
2023-03-13T04:33:34.249Z,11.97
2023-03-13T04:37:05.076Z,12.01
2023-03-13T04:40:25.299Z,12.02
2023-03-13T04:43:38.662Z,11.94
2023-03-13T04:47:03.984Z,11.88
2023-03-13T04:50:20.581Z,11.86
2023-03-13T04:53:38.899Z,11.97
2023-03-13T04:57:00.607Z,11.92
2023-03-13T05:00:11.464Z,11.85
2023-03-13T05:03:26.155Z,11.95
2023-03-13T05:06:46.200Z,11.89
2023-03-13T05:09:47.642Z,11.89
2023-03-13T05:13:18.190Z,11.90
2023-03-13T05:16:32.115Z,11.93
2023-03-13T05:19:53.776Z,11.97
2023-03-13T05:23:18.039Z,11.91
2023-03-13T05:26:37.642Z,11.91
2023-03-13T05:29:53.281Z,11.99
2023-03-13T05:33:11.328Z,11.85
2023-03-13T05:36:19.336Z,11.83
2023-03-13T05:39:36.823Z,11.89
2023-03-13T05:43:01.127Z,11.93
2023-03-13T05:46:37.697Z,11.88
2023-03-13T05:50:08.536Z,12.00
2023-03-13T05:53:30.277Z,12.07
2023-03-13T05:56:48.719Z,12.11
2023-03-13T06:00:06.531Z,12.21
2023-03-13T06:03:36.102Z,12.19
2023-03-13T06:06:39.153Z,12.21
2023-03-13T06:09:40.956Z,12.22
2023-03-13T06:12:43.304Z,12.31
2023-03-13T06:15:55.362Z,12.36
2023-03-13T06:19:20.065Z,12.40
2023-03-13T06:22:21.552Z,12.36
2023-03-13T06:25:23.570Z,12.34
2023-03-13T06:28:24.946Z,12.40
2023-03-13T06:31:26.437Z,12.44
2023-03-13T06:34:27.953Z,12.41
2023-03-13T06:37:29.403Z,12.40
2023-03-13T06:40:30.774Z,12.40
2023-03-13T06:43:32.286Z,12.44
2023-03-13T06:46:33.802Z,12.45
2023-03-13T06:49:36.041Z,12.50
2023-03-13T06:52:43.865Z,12.46
2023-03-13T06:55:46.356Z,12.40
2023-03-13T06:58:49.368Z,12.52
2023-03-13T07:01:50.923Z,12.46
2023-03-13T07:04:52.308Z,12.45
2023-03-13T07:07:53.690Z,12.53
2023-03-13T07:10:59.990Z,12.51
2023-03-13T07:14:15.330Z,12.49
2023-03-13T07:17:17.749Z,12.52
2023-03-13T07:20:19.408Z,12.59
2023-03-13T07:23:21.738Z,12.64
2023-03-13T07:26:23.233Z,12.73
2023-03-13T07:29:25.034Z,12.87
2023-03-13T07:32:30.789Z,12.83
2023-03-13T07:35:32.263Z,12.83
2023-03-13T07:38:33.912Z,12.94
2023-03-13T07:41:35.509Z,13.05
2023-03-13T07:44:36.989Z,13.14
2023-03-13T07:47:38.367Z,13.26
2023-03-13T07:50:39.886Z,13.23
2023-03-13T07:53:41.373Z,13.25
2023-03-13T07:56:42.850Z,13.27
2023-03-13T07:59:44.231Z,13.29
2023-03-13T08:02:45.659Z,13.28
2023-03-13T08:05:47.105Z,13.28
2023-03-13T08:08:49.052Z,13.31
2023-03-13T08:11:50.436Z,13.47
2023-03-13T08:14:51.848Z,13.52
2023-03-13T08:17:53.323Z,13.51
2023-03-13T08:20:54.712Z,13.53
2023-03-13T08:24:01.459Z,13.56
2023-03-13T08:27:02.951Z,13.54
2023-03-13T08:30:05.037Z,13.63
2023-03-13T08:33:07.733Z,13.67
2023-03-13T08:36:17.132Z,13.65
2023-03-13T08:39:20.440Z,13.67
2023-03-13T08:42:25.778Z,13.66
2023-03-13T08:45:27.279Z,13.64
2023-03-13T08:48:28.867Z,13.75
2023-03-13T08:51:30.287Z,13.72
2023-03-13T08:54:32.893Z,13.83
2023-03-13T08:57:34.286Z,13.77
2023-03-13T09:00:35.676Z,13.79
2023-03-13T09:03:37.834Z,13.84
2023-03-13T09:06:39.334Z,13.82
2023-03-13T09:09:40.944Z,13.85
2023-03-13T09:12:42.362Z,13.79
2023-03-13T09:15:43.775Z,13.87
2023-03-13T09:18:45.930Z,13.89
2023-03-13T09:21:49.195Z,14.17
2023-03-13T09:24:50.580Z,14.37
2023-03-13T09:27:51.976Z,14.58
2023-03-13T09:30:54.269Z,14.65
2023-03-13T09:33:55.871Z,14.64
2023-03-13T09:36:57.313Z,14.43
2023-03-13T09:39:59.647Z,14.45
2023-03-13T09:43:01.294Z,14.38
2023-03-13T09:46:06.268Z,14.31
2023-03-13T09:49:30.245Z,14.36
2023-03-13T09:52:40.397Z,14.34
2023-03-13T09:55:45.007Z,14.27
2023-03-13T09:59:07.323Z,14.25
2023-03-13T10:02:26.834Z,14.30
2023-03-13T10:05:29.711Z,14.38
2023-03-13T10:08:33.087Z,14.37
2023-03-13T10:11:51.158Z,14.53
2023-03-13T10:15:00.524Z,14.47
2023-03-13T10:18:13.995Z,14.42
2023-03-13T10:21:26.136Z,14.56
2023-03-13T10:24:36.859Z,14.66
2023-03-13T10:28:04.951Z,14.79
2023-03-13T10:31:25.155Z,14.93
2023-03-13T10:34:29.857Z,15.07
2023-03-13T10:37:42.084Z,15.07
2023-03-13T10:40:43.825Z,15.10
2023-03-13T10:43:53.751Z,15.06
2023-03-13T10:47:00.351Z,15.24
2023-03-13T10:50:04.075Z,15.30
2023-03-13T10:53:30.381Z,15.35
2023-03-13T10:56:31.790Z,15.39
2023-03-13T10:59:40.256Z,15.63
2023-03-13T11:02:44.755Z,15.86
2023-03-13T11:06:01.000Z,16.06
2023-03-13T11:09:02.317Z,16.22
2023-03-13T11:12:09.558Z,16.47
2023-03-13T11:15:51.493Z,16.52
2023-03-13T11:19:10.023Z,16.63
2023-03-13T11:22:14.616Z,16.74
2023-03-13T11:25:20.625Z,17.02
2023-03-13T11:28:45.068Z,17.45
2023-03-13T11:31:57.167Z,17.60
2023-03-13T11:35:04.570Z,17.57
2023-03-13T11:38:27.200Z,17.88
2023-03-13T11:42:00.583Z,17.93
2023-03-13T11:45:28.404Z,17.90
2023-03-13T11:49:02.164Z,17.94
2023-03-13T11:52:35.544Z,18.14
2023-03-13T11:56:24.966Z,18.32
2023-03-13T11:59:52.840Z,18.43
2023-03-13T12:03:04.786Z,18.94
2023-03-13T12:06:27.360Z,19.30
2023-03-13T12:09:51.733Z,19.47
2023-03-13T12:13:20.000Z,19.60
2023-03-13T12:16:27.021Z,19.64
2023-03-13T12:19:45.458Z,19.87
2023-03-13T12:22:49.829Z,20.19
2023-03-13T12:26:03.337Z,20.08
2023-03-13T12:29:13.920Z,20.04
2023-03-13T12:32:54.109Z,19.71
2023-03-13T12:36:21.016Z,19.40
2023-03-13T12:40:12.227Z,19.16
2023-03-13T12:43:29.969Z,18.93
2023-03-13T12:46:42.596Z,18.91
2023-03-13T12:50:02.351Z,18.85
2023-03-13T12:53:29.930Z,18.86
2023-03-13T12:56:46.320Z,19.03
2023-03-13T12:59:54.412Z,19.14
2023-03-13T13:03:16.183Z,19.28
2023-03-13T13:06:18.122Z,19.31
2023-03-13T13:09:59.774Z,19.45
2023-03-13T13:13:13.331Z,19.55
2023-03-13T13:16:20.267Z,19.59
2023-03-13T13:19:24.591Z,19.73
2023-03-13T13:22:38.457Z,19.99
2023-03-13T13:25:40.040Z,20.20
2023-03-13T13:28:43.788Z,20.40
2023-03-13T13:31:48.494Z,20.33
2023-03-13T13:34:56.041Z,20.86
2023-03-13T13:38:18.980Z,20.98
2023-03-13T13:41:20.773Z,21.07
2023-03-13T13:44:29.514Z,21.09
2023-03-13T13:47:33.792Z,21.21
2023-03-13T13:50:35.408Z,21.16
2023-03-13T13:53:59.601Z,21.20
2023-03-13T13:57:11.352Z,21.02
2023-03-13T14:00:27.097Z,21.06
2023-03-13T14:03:31.762Z,20.75
2023-03-13T14:06:36.684Z,20.62
2023-03-13T14:09:52.505Z,20.40
2023-03-13T14:12:57.596Z,20.30
2023-03-13T14:16:23.700Z,20.18
2023-03-13T14:19:33.897Z,20.28
2023-03-13T14:22:46.669Z,20.39
2023-03-13T14:25:50.337Z,20.41
2023-03-13T14:28:54.633Z,20.43
2023-03-13T14:31:58.686Z,20.91
2023-03-13T14:35:00.151Z,21.15
2023-03-13T14:38:03.398Z,21.55
2023-03-13T14:41:04.837Z,21.64
2023-03-13T14:44:14.966Z,21.78
2023-03-13T14:47:16.655Z,21.66
2023-03-13T14:50:18.560Z,21.39
2023-03-13T14:53:22.882Z,21.11
2023-03-13T14:56:38.666Z,21.02
2023-03-13T14:59:40.730Z,20.78
2023-03-13T15:02:43.390Z,20.89
2023-03-13T15:05:47.677Z,20.75
2023-03-13T15:09:15.306Z,20.80
2023-03-13T15:12:20.217Z,20.62
2023-03-13T15:15:25.943Z,20.57
2023-03-13T15:18:30.187Z,20.57
2023-03-13T15:21:33.681Z,20.60
2023-03-13T15:24:35.095Z,20.57
2023-03-13T15:27:36.621Z,20.50
2023-03-13T15:30:38.022Z,20.49
2023-03-13T15:33:39.716Z,20.31
2023-03-13T15:36:42.400Z,20.45
2023-03-13T15:39:43.856Z,20.51
2023-03-13T15:42:45.668Z,20.51
2023-03-13T15:45:51.710Z,20.57
2023-03-13T15:48:53.925Z,20.48
2023-03-13T15:51:57.770Z,20.36
2023-03-13T15:54:59.387Z,20.31
2023-03-13T15:58:00.776Z,20.30
2023-03-13T16:01:02.237Z,20.27
2023-03-13T16:04:04.461Z,20.36
2023-03-13T16:07:11.474Z,20.25
2023-03-13T16:10:25.268Z,20.30
2023-03-13T16:13:27.027Z,20.20
2023-03-13T16:16:36.440Z,20.25
2023-03-13T16:19:38.642Z,20.09
2023-03-13T16:22:40.028Z,20.05
2023-03-13T16:25:41.496Z,19.98
2023-03-13T16:28:43.581Z,19.96
2023-03-13T16:31:45.097Z,19.98
2023-03-13T16:34:46.630Z,20.07
2023-03-13T16:37:50.694Z,18.94
2023-03-13T16:40:52.102Z,18.15
2023-03-13T16:43:54.431Z,17.83
2023-03-13T16:47:05.630Z,17.63
2023-03-13T16:50:32.473Z,17.49
2023-03-13T16:53:33.882Z,17.36
2023-03-13T16:56:38.439Z,17.26
2023-03-13T16:59:39.890Z,17.14
2023-03-13T17:02:41.366Z,17.03
2023-03-13T17:05:42.773Z,16.95
2023-03-13T17:08:44.543Z,16.88
2023-03-13T17:11:46.479Z,16.75
2023-03-13T17:14:47.963Z,16.51
2023-03-13T17:17:54.092Z,16.17
2023-03-13T17:20:55.561Z,15.93
2023-03-13T17:23:57.024Z,15.78
2023-03-13T17:26:58.911Z,15.66
2023-03-13T17:30:00.360Z,15.59
2023-03-13T17:33:01.862Z,15.59
2023-03-13T17:36:16.931Z,15.58
2023-03-13T17:39:18.384Z,15.52
2023-03-13T17:42:19.841Z,15.45
2023-03-13T17:45:21.257Z,15.32
2023-03-13T17:48:22.740Z,15.05
2023-03-13T17:51:26.340Z,14.87
2023-03-13T17:54:27.754Z,14.88
2023-03-13T17:57:29.126Z,14.95
2023-03-13T18:00:32.529Z,14.94
2023-03-13T18:03:33.936Z,14.93
2023-03-13T18:06:42.318Z,14.91
2023-03-13T18:09:47.393Z,14.95
2023-03-13T18:12:49.019Z,14.95
2023-03-13T18:15:50.472Z,14.92
2023-03-13T18:18:53.298Z,14.80
2023-03-13T18:21:55.788Z,14.75
2023-03-13T18:24:57.394Z,14.74
2023-03-13T18:27:59.076Z,14.73
2023-03-13T18:31:00.578Z,14.70
2023-03-13T18:34:04.090Z,14.63
2023-03-13T18:37:20.632Z,14.56
2023-03-13T18:40:25.322Z,14.56
2023-03-13T18:43:26.730Z,14.54
2023-03-13T18:46:31.608Z,14.51
2023-03-13T18:49:32.999Z,14.53
2023-03-13T18:52:34.391Z,14.47
2023-03-13T18:55:35.797Z,14.52
2023-03-13T18:58:37.343Z,14.53
2023-03-13T19:01:38.994Z,14.52
2023-03-13T19:04:40.426Z,14.40
2023-03-13T19:07:41.935Z,14.19
2023-03-13T19:10:43.463Z,14.03
2023-03-13T19:13:45.066Z,14.00
2023-03-13T19:16:51.581Z,13.99
2023-03-13T19:19:57.045Z,13.83
2023-03-13T19:23:00.526Z,13.81
2023-03-13T19:26:02.063Z,13.68
2023-03-13T19:29:06.169Z,13.72
2023-03-13T19:32:13.393Z,13.61
2023-03-13T19:35:18.606Z,13.43
2023-03-13T19:38:20.002Z,13.04
2023-03-13T19:41:21.378Z,12.74
2023-03-13T19:44:28.052Z,12.68
2023-03-13T19:47:29.435Z,12.76
2023-03-13T19:50:31.472Z,12.45
2023-03-13T19:53:34.486Z,12.39
2023-03-13T19:56:37.324Z,12.51
2023-03-13T19:59:39.971Z,12.54
2023-03-13T20:02:41.693Z,12.58
2023-03-13T20:05:43.210Z,12.63
2023-03-13T20:08:45.936Z,12.67
2023-03-13T20:11:47.441Z,12.65
2023-03-13T20:14:48.912Z,12.63
2023-03-13T20:17:50.598Z,12.62
2023-03-13T20:20:51.999Z,12.50
2023-03-13T20:23:53.433Z,12.53
2023-03-13T20:26:55.642Z,12.60
2023-03-13T20:29:57.123Z,12.45
2023-03-13T20:33:00.039Z,12.36
2023-03-13T20:36:09.309Z,12.33
2023-03-13T20:39:10.907Z,12.23
2023-03-13T20:42:12.636Z,12.11
2023-03-13T20:45:14.065Z,12.08
2023-03-13T20:48:16.114Z,11.99
2023-03-13T20:51:17.716Z,11.99
2023-03-13T20:54:19.178Z,11.88
2023-03-13T20:57:21.073Z,11.81
2023-03-13T21:00:23.250Z,11.89
2023-03-13T21:03:24.812Z,11.82
2023-03-13T21:06:27.199Z,11.82
2023-03-13T21:09:28.683Z,11.86
2023-03-13T21:12:30.200Z,11.75
2023-03-13T21:15:32.465Z,11.72
2023-03-13T21:18:34.093Z,11.78
2023-03-13T21:21:35.466Z,11.76
2023-03-13T21:24:36.904Z,11.74
2023-03-13T21:27:38.902Z,11.70
2023-03-13T21:30:40.272Z,11.65
2023-03-13T21:33:43.026Z,11.61
2023-03-13T21:36:44.583Z,11.60
2023-03-13T21:39:50.157Z,11.60
2023-03-13T21:42:51.547Z,11.58
2023-03-13T21:45:52.929Z,11.58
2023-03-13T21:48:54.375Z,11.55
2023-03-13T21:51:56.356Z,11.63
2023-03-13T21:54:57.874Z,11.56
2023-03-13T21:57:59.260Z,11.55
2023-03-13T22:01:00.760Z,11.56
2023-03-13T22:04:02.184Z,11.54
2023-03-13T22:07:03.829Z,11.48
2023-03-13T22:10:05.715Z,11.48
2023-03-13T22:13:12.435Z,11.55
2023-03-13T22:16:13.840Z,11.52
2023-03-13T22:19:17.346Z,11.68
2023-03-13T22:22:21.683Z,11.72
2023-03-13T22:25:23.091Z,11.77
2023-03-13T22:28:25.580Z,11.75
2023-03-13T22:31:27.188Z,11.68
2023-03-13T22:34:28.989Z,11.68
2023-03-13T22:37:30.622Z,11.72
2023-03-13T22:40:32.563Z,11.67
2023-03-13T22:43:35.071Z,11.62
2023-03-13T22:46:36.790Z,11.61
2023-03-13T22:49:38.277Z,11.54
2023-03-13T22:52:39.688Z,11.55
2023-03-13T22:55:41.069Z,11.52
2023-03-13T22:58:42.711Z,11.51
2023-03-13T23:01:44.195Z,11.48
2023-03-13T23:04:45.562Z,11.49
2023-03-13T23:07:47.037Z,11.51
2023-03-13T23:10:48.456Z,11.52
2023-03-13T23:13:49.884Z,11.52
2023-03-13T23:16:51.349Z,11.54
2023-03-13T23:19:52.710Z,11.62
2023-03-13T23:22:54.171Z,11.64
2023-03-13T23:25:55.556Z,11.56
2023-03-13T23:28:57.013Z,11.59
2023-03-13T23:31:58.412Z,11.54
2023-03-13T23:35:00.683Z,11.58
2023-03-13T23:38:02.063Z,11.69
2023-03-13T23:41:08.427Z,11.75
2023-03-13T23:44:09.889Z,11.74
2023-03-13T23:47:11.292Z,11.82
2023-03-13T23:50:14.832Z,11.85
2023-03-13T23:53:16.220Z,11.96
2023-03-13T23:56:17.878Z,11.90
2023-03-13T23:59:19.307Z,11.94
